sensor_id;sensor_type;location;lat;lon;timestamp;temperature;humidity
17948;DHT22;9099;47.958;11.366;2024-01-06T00:01:24;6.80;99.90
17948;DHT22;9099;47.958;11.366;2024-01-06T00:03:51;6.90;99.90
17948;DHT22;9099;47.958;11.366;2024-01-06T00:06:18;6.80;99.90
17948;DHT22;9099;47.958;11.366;2024-01-06T00:08:45;6.80;99.90
17948;DHT22;9099;47.958;11.366;2024-01-06T00:11:12;6.90;99.90
17948;DHT22;9099;47.958;11.366;2024-01-06T00:13:38;6.90;99.90
17948;DHT22;9099;47.958;11.366;2024-01-06T00:16:07;6.90;99.90
17948;DHT22;9099;47.958;11.366;2024-01-06T00:18:33;6.90;99.90
17948;DHT22;9099;47.958;11.366;2024-01-06T00:21:00;6.90;99.90
17948;DHT22;9099;47.958;11.366;2024-01-06T00:23:27;6.90;99.90
17948;DHT22;9099;47.958;11.366;2024-01-06T00:25:54;7.00;99.90
17948;DHT22;9099;47.958;11.366;2024-01-06T00:28:21;6.90;99.90
17948;DHT22;9099;47.958;11.366;2024-01-06T00:30:47;6.90;99.90
17948;DHT22;9099;47.958;11.366;2024-01-06T00:33:16;6.90;99.90
17948;DHT22;9099;47.958;11.366;2024-01-06T00:35:42;7.00;99.90
17948;DHT22;9099;47.958;11.366;2024-01-06T00:38:09;7.00;99.90
17948;DHT22;9099;47.958;11.366;2024-01-06T00:40:36;6.90;99.90
17948;DHT22;9099;47.958;11.366;2024-01-06T00:43:03;6.90;99.90
17948;DHT22;9099;47.958;11.366;2024-01-06T00:45:30;6.90;99.90
17948;DHT22;9099;47.958;11.366;2024-01-06T00:47:57;6.90;99.90
17948;DHT22;9099;47.958;11.366;2024-01-06T00:50:25;7.00;99.90
17948;DHT22;9099;47.958;11.366;2024-01-06T00:52:52;7.00;99.90
17948;DHT22;9099;47.958;11.366;2024-01-06T00:55:19;6.90;99.90
17948;DHT22;9099;47.958;11.366;2024-01-06T00:57:46;6.80;99.90
17948;DHT22;9099;47.958;11.366;2024-01-06T01:00:13;6.80;99.90
17948;DHT22;9099;47.958;11.366;2024-01-06T01:02:40;6.80;99.90
17948;DHT22;9099;47.958;11.366;2024-01-06T01:05:07;6.70;99.90
17948;DHT22;9099;47.958;11.366;2024-01-06T01:07:35;6.80;99.90
17948;DHT22;9099;47.958;11.366;2024-01-06T01:10:03;6.80;99.90
17948;DHT22;9099;47.958;11.366;2024-01-06T01:12:30;6.80;99.90
17948;DHT22;9099;47.958;11.366;2024-01-06T01:14:57;6.70;99.90
17948;DHT22;9099;47.958;11.366;2024-01-06T01:17:24;6.60;99.90
17948;DHT22;9099;47.958;11.366;2024-01-06T01:19:51;6.60;99.90
17948;DHT22;9099;47.958;11.366;2024-01-06T01:22:18;6.60;99.90
17948;DHT22;9099;47.958;11.366;2024-01-06T01:24:46;6.70;99.90
17948;DHT22;9099;47.958;11.366;2024-01-06T01:27:13;6.60;99.90
17948;DHT22;9099;47.958;11.366;2024-01-06T01:29:40;6.50;99.90
17948;DHT22;9099;47.958;11.366;2024-01-06T01:32:06;6.50;99.90
17948;DHT22;9099;47.958;11.366;2024-01-06T01:34:33;6.40;99.90
17948;DHT22;9099;47.958;11.366;2024-01-06T01:37:00;6.30;99.90
17948;DHT22;9099;47.958;11.366;2024-01-06T01:39:27;6.30;99.90
17948;DHT22;9099;47.958;11.366;2024-01-06T01:41:55;6.30;99.90
17948;DHT22;9099;47.958;11.366;2024-01-06T01:44:22;6.30;99.90
17948;DHT22;9099;47.958;11.366;2024-01-06T01:46:49;6.30;99.90
17948;DHT22;9099;47.958;11.366;2024-01-06T01:49:16;6.30;99.90
17948;DHT22;9099;47.958;11.366;2024-01-06T01:51:43;6.30;99.90
17948;DHT22;9099;47.958;11.366;2024-01-06T01:54:10;6.30;99.90
17948;DHT22;9099;47.958;11.366;2024-01-06T01:56:38;6.30;99.90
17948;DHT22;9099;47.958;11.366;2024-01-06T01:59:11;6.30;99.90
17948;DHT22;9099;47.958;11.366;2024-01-06T02:01:38;6.30;99.90
17948;DHT22;9099;47.958;11.366;2024-01-06T02:04:06;6.30;99.90
17948;DHT22;9099;47.958;11.366;2024-01-06T02:06:32;6.30;99.90
17948;DHT22;9099;47.958;11.366;2024-01-06T02:08:59;6.30;99.90
17948;DHT22;9099;47.958;11.366;2024-01-06T02:11:26;6.30;99.90
17948;DHT22;9099;47.958;11.366;2024-01-06T02:13:53;6.40;99.90
17948;DHT22;9099;47.958;11.366;2024-01-06T02:16:21;6.40;99.90
17948;DHT22;9099;47.958;11.366;2024-01-06T02:18:48;6.40;99.90
17948;DHT22;9099;47.958;11.366;2024-01-06T02:21:15;6.40;99.90
17948;DHT22;9099;47.958;11.366;2024-01-06T02:23:45;6.40;99.90
17948;DHT22;9099;47.958;11.366;2024-01-06T02:26:12;6.30;99.90
17948;DHT22;9099;47.958;11.366;2024-01-06T02:28:40;6.20;99.90
17948;DHT22;9099;47.958;11.366;2024-01-06T02:31:07;6.20;99.90
17948;DHT22;9099;47.958;11.366;2024-01-06T02:33:34;6.10;99.90
17948;DHT22;9099;47.958;11.366;2024-01-06T02:36:01;6.10;99.90
17948;DHT22;9099;47.958;11.366;2024-01-06T02:38:28;6.10;99.90
17948;DHT22;9099;47.958;11.366;2024-01-06T02:40:56;6.10;99.90
17948;DHT22;9099;47.958;11.366;2024-01-06T02:43:23;6.00;99.90
17948;DHT22;9099;47.958;11.366;2024-01-06T02:45:50;6.00;99.90
17948;DHT22;9099;47.958;11.366;2024-01-06T02:48:16;5.90;99.90
17948;DHT22;9099;47.958;11.366;2024-01-06T02:50:43;5.90;99.90
17948;DHT22;9099;47.958;11.366;2024-01-06T02:53:10;5.90;99.90
17948;DHT22;9099;47.958;11.366;2024-01-06T02:55:38;5.90;99.90
17948;DHT22;9099;47.958;11.366;2024-01-06T02:58:06;5.90;99.90
17948;DHT22;9099;47.958;11.366;2024-01-06T03:00:33;5.90;99.90
17948;DHT22;9099;47.958;11.366;2024-01-06T03:02:59;5.90;99.90
17948;DHT22;9099;47.958;11.366;2024-01-06T03:05:26;5.90;99.90
17948;DHT22;9099;47.958;11.366;2024-01-06T03:07:53;5.80;99.90
17948;DHT22;9099;47.958;11.366;2024-01-06T03:10:20;5.80;99.90
17948;DHT22;9099;47.958;11.366;2024-01-06T03:12:47;5.80;99.90
17948;DHT22;9099;47.958;11.366;2024-01-06T03:15:15;5.90;99.90
17948;DHT22;9099;47.958;11.366;2024-01-06T03:17:42;5.90;99.90
17948;DHT22;9099;47.958;11.366;2024-01-06T03:20:09;6.00;99.90
17948;DHT22;9099;47.958;11.366;2024-01-06T03:22:36;6.00;99.90
17948;DHT22;9099;47.958;11.366;2024-01-06T03:25:04;6.10;99.90
17948;DHT22;9099;47.958;11.366;2024-01-06T03:27:31;6.10;99.90
17948;DHT22;9099;47.958;11.366;2024-01-06T03:29:58;5.90;99.90
17948;DHT22;9099;47.958;11.366;2024-01-06T03:32:27;5.90;99.90
17948;DHT22;9099;47.958;11.366;2024-01-06T03:34:54;5.90;99.90
17948;DHT22;9099;47.958;11.366;2024-01-06T03:37:21;5.90;99.90
17948;DHT22;9099;47.958;11.366;2024-01-06T03:39:48;5.90;99.90
17948;DHT22;9099;47.958;11.366;2024-01-06T03:42:15;5.90;99.90
17948;DHT22;9099;47.958;11.366;2024-01-06T03:44:42;5.90;99.90
17948;DHT22;9099;47.958;11.366;2024-01-06T03:47:09;5.90;99.90
17948;DHT22;9099;47.958;11.366;2024-01-06T03:49:37;5.90;99.90
17948;DHT22;9099;47.958;11.366;2024-01-06T03:52:04;6.00;99.90
17948;DHT22;9099;47.958;11.366;2024-01-06T03:54:31;6.00;99.90
17948;DHT22;9099;47.958;11.366;2024-01-06T03:56:58;6.00;99.90
17948;DHT22;9099;47.958;11.366;2024-01-06T03:59:25;6.00;99.90
17948;DHT22;9099;47.958;11.366;2024-01-06T04:01:52;6.00;99.90
17948;DHT22;9099;47.958;11.366;2024-01-06T04:04:19;6.00;99.90
17948;DHT22;9099;47.958;11.366;2024-01-06T04:06:47;6.00;99.90
17948;DHT22;9099;47.958;11.366;2024-01-06T04:09:14;6.00;99.90
17948;DHT22;9099;47.958;11.366;2024-01-06T04:11:41;5.90;99.90
17948;DHT22;9099;47.958;11.366;2024-01-06T04:14:08;5.90;99.90
17948;DHT22;9099;47.958;11.366;2024-01-06T04:16:35;5.90;99.90
17948;DHT22;9099;47.958;11.366;2024-01-06T04:19:02;5.90;99.90
17948;DHT22;9099;47.958;11.366;2024-01-06T04:21:28;5.90;99.90
17948;DHT22;9099;47.958;11.366;2024-01-06T04:23:57;5.80;99.90
17948;DHT22;9099;47.958;11.366;2024-01-06T04:26:23;5.80;99.90
17948;DHT22;9099;47.958;11.366;2024-01-06T04:28:50;5.70;99.90
17948;DHT22;9099;47.958;11.366;2024-01-06T04:31:17;5.70;99.90
17948;DHT22;9099;47.958;11.366;2024-01-06T04:33:44;5.60;99.90
17948;DHT22;9099;47.958;11.366;2024-01-06T04:36:10;5.50;99.90
17948;DHT22;9099;47.958;11.366;2024-01-06T04:38:37;5.30;99.90
17948;DHT22;9099;47.958;11.366;2024-01-06T04:41:06;5.20;99.90
17948;DHT22;9099;47.958;11.366;2024-01-06T04:43:33;5.20;99.90
17948;DHT22;9099;47.958;11.366;2024-01-06T04:46:00;5.20;99.90
17948;DHT22;9099;47.958;11.366;2024-01-06T04:48:27;5.20;99.90
17948;DHT22;9099;47.958;11.366;2024-01-06T04:50:54;5.20;99.90
17948;DHT22;9099;47.958;11.366;2024-01-06T04:53:21;5.20;99.90
17948;DHT22;9099;47.958;11.366;2024-01-06T04:55:48;5.30;99.90
17948;DHT22;9099;47.958;11.366;2024-01-06T04:58:16;5.30;99.90
17948;DHT22;9099;47.958;11.366;2024-01-06T05:00:43;5.30;99.90
17948;DHT22;9099;47.958;11.366;2024-01-06T05:03:10;5.30;99.90
17948;DHT22;9099;47.958;11.366;2024-01-06T05:05:37;5.30;99.90
17948;DHT22;9099;47.958;11.366;2024-01-06T05:08:04;5.30;99.90
17948;DHT22;9099;47.958;11.366;2024-01-06T05:10:31;5.30;99.90
17948;DHT22;9099;47.958;11.366;2024-01-06T05:12:58;5.30;99.90
17948;DHT22;9099;47.958;11.366;2024-01-06T05:15:26;5.20;99.90
17948;DHT22;9099;47.958;11.366;2024-01-06T05:17:53;5.10;99.90
17948;DHT22;9099;47.958;11.366;2024-01-06T05:20:20;5.10;99.90
17948;DHT22;9099;47.958;11.366;2024-01-06T05:22:47;5.10;99.90
17948;DHT22;9099;47.958;11.366;2024-01-06T05:25:13;5.10;99.90
17948;DHT22;9099;47.958;11.366;2024-01-06T05:27:40;5.10;99.90
17948;DHT22;9099;47.958;11.366;2024-01-06T05:30:08;5.10;99.90
17948;DHT22;9099;47.958;11.366;2024-01-06T05:32:37;5.00;99.90
17948;DHT22;9099;47.958;11.366;2024-01-06T05:35:04;5.00;99.90
17948;DHT22;9099;47.958;11.366;2024-01-06T05:37:31;5.10;99.90
17948;DHT22;9099;47.958;11.366;2024-01-06T05:39:58;5.10;99.90
17948;DHT22;9099;47.958;11.366;2024-01-06T05:42:27;5.10;99.90
17948;DHT22;9099;47.958;11.366;2024-01-06T05:44:53;5.20;99.90
17948;DHT22;9099;47.958;11.366;2024-01-06T05:47:20;5.20;99.90
17948;DHT22;9099;47.958;11.366;2024-01-06T05:49:48;5.20;99.90
17948;DHT22;9099;47.958;11.366;2024-01-06T05:52:15;5.10;99.90
17948;DHT22;9099;47.958;11.366;2024-01-06T05:54:42;5.10;99.90
17948;DHT22;9099;47.958;11.366;2024-01-06T05:57:09;5.00;99.90
17948;DHT22;9099;47.958;11.366;2024-01-06T05:59:36;5.10;99.90
17948;DHT22;9099;47.958;11.366;2024-01-06T06:02:03;5.10;99.90
17948;DHT22;9099;47.958;11.366;2024-01-06T06:04:30;5.10;99.90
17948;DHT22;9099;47.958;11.366;2024-01-06T06:06:58;5.10;99.90
17948;DHT22;9099;47.958;11.366;2024-01-06T06:09:24;5.10;99.90
17948;DHT22;9099;47.958;11.366;2024-01-06T06:11:53;5.10;99.90
17948;DHT22;9099;47.958;11.366;2024-01-06T06:14:20;5.10;99.90
17948;DHT22;9099;47.958;11.366;2024-01-06T06:16:47;5.10;99.90
17948;DHT22;9099;47.958;11.366;2024-01-06T06:19:14;5.10;99.90
17948;DHT22;9099;47.958;11.366;2024-01-06T06:21:43;4.90;99.90
17948;DHT22;9099;47.958;11.366;2024-01-06T06:24:11;4.90;99.90
17948;DHT22;9099;47.958;11.366;2024-01-06T06:26:38;5.00;99.90
17948;DHT22;9099;47.958;11.366;2024-01-06T06:29:04;5.10;99.90
17948;DHT22;9099;47.958;11.366;2024-01-06T06:31:31;5.10;99.90
17948;DHT22;9099;47.958;11.366;2024-01-06T06:33:58;5.00;99.90
17948;DHT22;9099;47.958;11.366;2024-01-06T06:36:25;4.80;99.90
17948;DHT22;9099;47.958;11.366;2024-01-06T06:38:52;4.80;99.90
17948;DHT22;9099;47.958;11.366;2024-01-06T06:41:21;4.80;99.90
17948;DHT22;9099;47.958;11.366;2024-01-06T06:43:47;4.80;99.90
17948;DHT22;9099;47.958;11.366;2024-01-06T06:46:14;4.80;99.90
17948;DHT22;9099;47.958;11.366;2024-01-06T06:48:41;4.90;99.90
17948;DHT22;9099;47.958;11.366;2024-01-06T06:51:08;4.90;99.90
17948;DHT22;9099;47.958;11.366;2024-01-06T06:53:36;4.90;99.90
17948;DHT22;9099;47.958;11.366;2024-01-06T06:56:03;4.90;99.90
17948;DHT22;9099;47.958;11.366;2024-01-06T06:58:31;4.90;99.90
17948;DHT22;9099;47.958;11.366;2024-01-06T07:00:58;5.00;99.90
17948;DHT22;9099;47.958;11.366;2024-01-06T07:03:26;4.90;99.90
17948;DHT22;9099;47.958;11.366;2024-01-06T07:05:53;4.90;99.90
17948;DHT22;9099;47.958;11.366;2024-01-06T07:08:19;4.90;99.90
17948;DHT22;9099;47.958;11.366;2024-01-06T07:10:46;5.00;99.90
17948;DHT22;9099;47.958;11.366;2024-01-06T07:13:13;4.90;99.90
17948;DHT22;9099;47.958;11.366;2024-01-06T07:15:41;5.00;99.90
17948;DHT22;9099;47.958;11.366;2024-01-06T07:18:08;5.00;99.90
17948;DHT22;9099;47.958;11.366;2024-01-06T07:20:35;5.00;99.90
17948;DHT22;9099;47.958;11.366;2024-01-06T07:23:02;5.00;99.90
17948;DHT22;9099;47.958;11.366;2024-01-06T07:25:29;5.00;99.90
17948;DHT22;9099;47.958;11.366;2024-01-06T07:27:56;4.90;99.90
17948;DHT22;9099;47.958;11.366;2024-01-06T07:30:24;4.90;99.90
17948;DHT22;9099;47.958;11.366;2024-01-06T07:32:52;5.00;99.90
17948;DHT22;9099;47.958;11.366;2024-01-06T07:35:19;5.00;99.90
17948;DHT22;9099;47.958;11.366;2024-01-06T07:37:46;5.00;99.90
17948;DHT22;9099;47.958;11.366;2024-01-06T07:40:12;5.10;99.90
17948;DHT22;9099;47.958;11.366;2024-01-06T07:42:42;5.10;99.90
17948;DHT22;9099;47.958;11.366;2024-01-06T07:45:09;5.10;99.90
17948;DHT22;9099;47.958;11.366;2024-01-06T07:47:36;5.10;99.90
17948;DHT22;9099;47.958;11.366;2024-01-06T07:50:06;5.20;99.90
17948;DHT22;9099;47.958;11.366;2024-01-06T07:52:34;5.10;99.90
17948;DHT22;9099;47.958;11.366;2024-01-06T07:55:00;5.10;99.90
17948;DHT22;9099;47.958;11.366;2024-01-06T07:57:28;5.10;99.90
17948;DHT22;9099;47.958;11.366;2024-01-06T07:59:55;5.00;99.90
17948;DHT22;9099;47.958;11.366;2024-01-06T08:02:22;5.00;99.90
17948;DHT22;9099;47.958;11.366;2024-01-06T08:04:49;5.10;99.90
17948;DHT22;9099;47.958;11.366;2024-01-06T08:07:17;5.10;99.90
17948;DHT22;9099;47.958;11.366;2024-01-06T08:09:44;5.10;99.90
17948;DHT22;9099;47.958;11.366;2024-01-06T08:12:10;5.10;99.90
17948;DHT22;9099;47.958;11.366;2024-01-06T08:14:37;5.10;99.90
17948;DHT22;9099;47.958;11.366;2024-01-06T08:17:04;5.10;99.90
17948;DHT22;9099;47.958;11.366;2024-01-06T08:19:31;5.20;99.90
17948;DHT22;9099;47.958;11.366;2024-01-06T08:21:59;5.30;99.90
17948;DHT22;9099;47.958;11.366;2024-01-06T08:24:27;5.30;99.90
17948;DHT22;9099;47.958;11.366;2024-01-06T08:26:54;5.20;99.90
17948;DHT22;9099;47.958;11.366;2024-01-06T08:29:21;5.20;99.90
17948;DHT22;9099;47.958;11.366;2024-01-06T08:31:47;5.20;99.90
17948;DHT22;9099;47.958;11.366;2024-01-06T08:34:17;5.20;99.90
17948;DHT22;9099;47.958;11.366;2024-01-06T08:36:44;5.20;99.90
17948;DHT22;9099;47.958;11.366;2024-01-06T08:39:11;5.20;99.90
17948;DHT22;9099;47.958;11.366;2024-01-06T08:41:40;5.10;99.90
17948;DHT22;9099;47.958;11.366;2024-01-06T08:44:06;5.00;99.90
17948;DHT22;9099;47.958;11.366;2024-01-06T08:46:33;5.00;99.90
17948;DHT22;9099;47.958;11.366;2024-01-06T08:49:00;5.00;99.90
17948;DHT22;9099;47.958;11.366;2024-01-06T08:51:27;5.00;99.90
17948;DHT22;9099;47.958;11.366;2024-01-06T08:53:54;5.00;99.90
17948;DHT22;9099;47.958;11.366;2024-01-06T08:56:20;5.00;99.90
17948;DHT22;9099;47.958;11.366;2024-01-06T08:58:49;5.00;99.90
17948;DHT22;9099;47.958;11.366;2024-01-06T09:01:15;5.10;99.90
17948;DHT22;9099;47.958;11.366;2024-01-06T09:03:42;5.10;99.90
17948;DHT22;9099;47.958;11.366;2024-01-06T09:06:09;5.10;99.90
17948;DHT22;9099;47.958;11.366;2024-01-06T09:08:36;5.00;99.90
17948;DHT22;9099;47.958;11.366;2024-01-06T09:11:03;5.00;99.90
17948;DHT22;9099;47.958;11.366;2024-01-06T09:13:30;5.00;99.90
17948;DHT22;9099;47.958;11.366;2024-01-06T09:15:59;4.90;99.90
17948;DHT22;9099;47.958;11.366;2024-01-06T09:18:26;4.90;99.90
17948;DHT22;9099;47.958;11.366;2024-01-06T09:20:53;5.00;99.90
17948;DHT22;9099;47.958;11.366;2024-01-06T09:23:19;5.00;99.90
17948;DHT22;9099;47.958;11.366;2024-01-06T09:25:47;5.10;99.90
17948;DHT22;9099;47.958;11.366;2024-01-06T09:28:15;5.10;99.90
17948;DHT22;9099;47.958;11.366;2024-01-06T09:30:42;5.10;99.90
17948;DHT22;9099;47.958;11.366;2024-01-06T09:33:10;5.10;99.90
17948;DHT22;9099;47.958;11.366;2024-01-06T09:35:41;5.20;99.90
17948;DHT22;9099;47.958;11.366;2024-01-06T09:38:09;5.30;99.90
17948;DHT22;9099;47.958;11.366;2024-01-06T09:40:42;5.20;99.90
17948;DHT22;9099;47.958;11.366;2024-01-06T09:43:09;5.30;99.90
17948;DHT22;9099;47.958;11.366;2024-01-06T09:45:36;5.20;99.90
17948;DHT22;9099;47.958;11.366;2024-01-06T09:48:09;5.10;99.90
17948;DHT22;9099;47.958;11.366;2024-01-06T09:50:38;5.10;99.90
17948;DHT22;9099;47.958;11.366;2024-01-06T09:53:08;5.10;99.90
17948;DHT22;9099;47.958;11.366;2024-01-06T09:55:37;5.10;99.90
17948;DHT22;9099;47.958;11.366;2024-01-06T09:58:04;5.20;99.90
17948;DHT22;9099;47.958;11.366;2024-01-06T10:00:31;5.10;99.90
17948;DHT22;9099;47.958;11.366;2024-01-06T10:02:59;5.10;99.90
17948;DHT22;9099;47.958;11.366;2024-01-06T10:05:25;5.10;99.90
17948;DHT22;9099;47.958;11.366;2024-01-06T10:07:54;5.10;99.90
17948;DHT22;9099;47.958;11.366;2024-01-06T10:10:22;5.10;99.90
17948;DHT22;9099;47.958;11.366;2024-01-06T10:12:53;5.10;99.90
17948;DHT22;9099;47.958;11.366;2024-01-06T10:15:20;5.10;99.90
17948;DHT22;9099;47.958;11.366;2024-01-06T10:17:46;5.10;99.90
17948;DHT22;9099;47.958;11.366;2024-01-06T10:20:13;5.10;99.90
17948;DHT22;9099;47.958;11.366;2024-01-06T10:22:41;5.10;99.90
17948;DHT22;9099;47.958;11.366;2024-01-06T10:25:10;5.10;99.90
17948;DHT22;9099;47.958;11.366;2024-01-06T10:27:38;5.10;99.90
17948;DHT22;9099;47.958;11.366;2024-01-06T10:30:06;5.10;99.90
17948;DHT22;9099;47.958;11.366;2024-01-06T10:32:35;5.10;99.90
17948;DHT22;9099;47.958;11.366;2024-01-06T10:35:03;5.20;99.90
17948;DHT22;9099;47.958;11.366;2024-01-06T10:37:31;5.20;99.90
17948;DHT22;9099;47.958;11.366;2024-01-06T10:40:10;5.20;99.90
17948;DHT22;9099;47.958;11.366;2024-01-06T10:42:38;5.20;99.90
17948;DHT22;9099;47.958;11.366;2024-01-06T10:45:07;5.20;99.90
17948;DHT22;9099;47.958;11.366;2024-01-06T10:47:35;5.20;99.90
17948;DHT22;9099;47.958;11.366;2024-01-06T10:50:02;5.10;99.90
17948;DHT22;9099;47.958;11.366;2024-01-06T10:52:30;5.20;99.90
17948;DHT22;9099;47.958;11.366;2024-01-06T10:54:58;5.20;99.90
17948;DHT22;9099;47.958;11.366;2024-01-06T10:57:27;5.30;99.90
17948;DHT22;9099;47.958;11.366;2024-01-06T10:59:58;5.30;99.90
17948;DHT22;9099;47.958;11.366;2024-01-06T11:02:25;5.40;99.90
17948;DHT22;9099;47.958;11.366;2024-01-06T11:04:53;5.40;99.90
17948;DHT22;9099;47.958;11.366;2024-01-06T11:07:21;5.40;99.90
17948;DHT22;9099;47.958;11.366;2024-01-06T11:09:52;5.40;99.90
17948;DHT22;9099;47.958;11.366;2024-01-06T11:12:20;5.40;99.90
17948;DHT22;9099;47.958;11.366;2024-01-06T11:14:48;5.40;99.90
17948;DHT22;9099;47.958;11.366;2024-01-06T11:17:49;5.50;99.90
17948;DHT22;9099;47.958;11.366;2024-01-06T11:20:18;5.50;99.90
17948;DHT22;9099;47.958;11.366;2024-01-06T11:22:45;5.50;99.90
17948;DHT22;9099;47.958;11.366;2024-01-06T11:25:14;5.50;99.90
17948;DHT22;9099;47.958;11.366;2024-01-06T11:27:43;5.50;99.90
17948;DHT22;9099;47.958;11.366;2024-01-06T11:30:20;5.60;99.90
17948;DHT22;9099;47.958;11.366;2024-01-06T11:32:47;5.60;99.90
17948;DHT22;9099;47.958;11.366;2024-01-06T11:35:15;5.70;99.90
17948;DHT22;9099;47.958;11.366;2024-01-06T11:37:54;5.70;99.90
17948;DHT22;9099;47.958;11.366;2024-01-06T11:40:31;5.70;99.90
17948;DHT22;9099;47.958;11.366;2024-01-06T11:43:02;5.60;99.90
17948;DHT22;9099;47.958;11.366;2024-01-06T11:45:33;5.60;99.90
17948;DHT22;9099;47.958;11.366;2024-01-06T11:48:01;5.60;99.90
17948;DHT22;9099;47.958;11.366;2024-01-06T11:50:29;5.60;99.90
17948;DHT22;9099;47.958;11.366;2024-01-06T11:52:56;5.60;99.90
17948;DHT22;9099;47.958;11.366;2024-01-06T11:55:25;5.60;99.90
17948;DHT22;9099;47.958;11.366;2024-01-06T11:57:53;5.40;99.90
17948;DHT22;9099;47.958;11.366;2024-01-06T12:00:21;5.40;99.90
17948;DHT22;9099;47.958;11.366;2024-01-06T12:02:50;5.40;99.90
17948;DHT22;9099;47.958;11.366;2024-01-06T12:05:22;5.30;99.90
17948;DHT22;9099;47.958;11.366;2024-01-06T12:07:53;5.30;99.90
17948;DHT22;9099;47.958;11.366;2024-01-06T12:10:22;5.30;99.90
17948;DHT22;9099;47.958;11.366;2024-01-06T12:12:59;5.30;99.90
17948;DHT22;9099;47.958;11.366;2024-01-06T12:15:27;5.30;99.90
17948;DHT22;9099;47.958;11.366;2024-01-06T12:17:55;5.30;99.90
17948;DHT22;9099;47.958;11.366;2024-01-06T12:20:23;5.20;99.90
17948;DHT22;9099;47.958;11.366;2024-01-06T12:22:51;5.20;99.90
17948;DHT22;9099;47.958;11.366;2024-01-06T12:25:20;5.20;99.90
17948;DHT22;9099;47.958;11.366;2024-01-06T12:27:48;5.20;99.90
17948;DHT22;9099;47.958;11.366;2024-01-06T12:30:16;5.20;99.90
17948;DHT22;9099;47.958;11.366;2024-01-06T12:32:45;5.20;99.90
17948;DHT22;9099;47.958;11.366;2024-01-06T12:35:14;5.20;99.90
17948;DHT22;9099;47.958;11.366;2024-01-06T12:37:41;5.20;99.90
17948;DHT22;9099;47.958;11.366;2024-01-06T12:40:12;5.20;99.90
17948;DHT22;9099;47.958;11.366;2024-01-06T12:42:40;5.20;99.90
17948;DHT22;9099;47.958;11.366;2024-01-06T12:45:08;5.20;99.90
17948;DHT22;9099;47.958;11.366;2024-01-06T12:47:36;5.20;99.90
17948;DHT22;9099;47.958;11.366;2024-01-06T12:50:04;5.20;99.90
17948;DHT22;9099;47.958;11.366;2024-01-06T12:52:33;5.20;99.90
17948;DHT22;9099;47.958;11.366;2024-01-06T12:54:59;5.10;99.90
17948;DHT22;9099;47.958;11.366;2024-01-06T12:57:28;5.10;99.90
17948;DHT22;9099;47.958;11.366;2024-01-06T12:59:55;5.00;99.90
17948;DHT22;9099;47.958;11.366;2024-01-06T13:02:22;5.00;99.90
17948;DHT22;9099;47.958;11.366;2024-01-06T13:04:49;4.90;99.90
17948;DHT22;9099;47.958;11.366;2024-01-06T13:07:16;4.90;99.90
17948;DHT22;9099;47.958;11.366;2024-01-06T13:09:44;4.90;99.90
17948;DHT22;9099;47.958;11.366;2024-01-06T13:12:11;5.00;99.90
17948;DHT22;9099;47.958;11.366;2024-01-06T13:14:38;4.90;99.90
17948;DHT22;9099;47.958;11.366;2024-01-06T13:17:05;4.90;99.90
17948;DHT22;9099;47.958;11.366;2024-01-06T13:19:31;4.90;99.90
17948;DHT22;9099;47.958;11.366;2024-01-06T13:21:59;4.80;99.90
17948;DHT22;9099;47.958;11.366;2024-01-06T13:24:26;4.90;99.90
17948;DHT22;9099;47.958;11.366;2024-01-06T13:26:54;4.90;99.90
17948;DHT22;9099;47.958;11.366;2024-01-06T13:29:21;4.80;99.90
17948;DHT22;9099;47.958;11.366;2024-01-06T13:31:48;4.70;99.90
17948;DHT22;9099;47.958;11.366;2024-01-06T13:34:15;4.50;99.90
17948;DHT22;9099;47.958;11.366;2024-01-06T13:36:43;4.40;99.90
17948;DHT22;9099;47.958;11.366;2024-01-06T13:39:10;4.50;99.90
17948;DHT22;9099;47.958;11.366;2024-01-06T13:41:45;4.40;99.90
17948;DHT22;9099;47.958;11.366;2024-01-06T13:44:14;4.40;99.90
17948;DHT22;9099;47.958;11.366;2024-01-06T13:46:41;4.30;99.90
17948;DHT22;9099;47.958;11.366;2024-01-06T13:49:10;4.10;99.90
17948;DHT22;9099;47.958;11.366;2024-01-06T13:51:37;4.10;99.90
17948;DHT22;9099;47.958;11.366;2024-01-06T13:54:04;4.10;99.90
17948;DHT22;9099;47.958;11.366;2024-01-06T13:56:31;4.10;99.90
17948;DHT22;9099;47.958;11.366;2024-01-06T13:58:58;4.10;99.90
17948;DHT22;9099;47.958;11.366;2024-01-06T14:01:26;4.00;99.90
17948;DHT22;9099;47.958;11.366;2024-01-06T14:03:53;4.00;99.90
17948;DHT22;9099;47.958;11.366;2024-01-06T14:06:23;4.00;99.90
17948;DHT22;9099;47.958;11.366;2024-01-06T14:08:51;4.00;99.90
17948;DHT22;9099;47.958;11.366;2024-01-06T14:11:18;3.90;99.90
17948;DHT22;9099;47.958;11.366;2024-01-06T14:13:45;3.90;99.90
17948;DHT22;9099;47.958;11.366;2024-01-06T14:16:14;3.90;99.90
17948;DHT22;9099;47.958;11.366;2024-01-06T14:18:42;3.90;99.90
17948;DHT22;9099;47.958;11.366;2024-01-06T14:21:09;4.00;99.90
17948;DHT22;9099;47.958;11.366;2024-01-06T14:23:36;4.10;99.90
17948;DHT22;9099;47.958;11.366;2024-01-06T14:26:03;4.10;99.90
17948;DHT22;9099;47.958;11.366;2024-01-06T14:28:30;4.10;99.90
17948;DHT22;9099;47.958;11.366;2024-01-06T14:30:56;4.10;99.90
17948;DHT22;9099;47.958;11.366;2024-01-06T14:33:24;4.10;99.90
17948;DHT22;9099;47.958;11.366;2024-01-06T14:35:53;4.60;99.90
17948;DHT22;9099;47.958;11.366;2024-01-06T14:38:20;5.20;99.90
17948;DHT22;9099;47.958;11.366;2024-01-06T14:40:47;5.10;99.90
17948;DHT22;9099;47.958;11.366;2024-01-06T14:43:14;4.90;99.90
17948;DHT22;9099;47.958;11.366;2024-01-06T14:45:41;4.80;99.90
17948;DHT22;9099;47.958;11.366;2024-01-06T14:48:07;4.70;99.90
17948;DHT22;9099;47.958;11.366;2024-01-06T14:50:34;4.70;99.90
17948;DHT22;9099;47.958;11.366;2024-01-06T14:53:03;4.70;99.90
17948;DHT22;9099;47.958;11.366;2024-01-06T14:55:30;4.60;99.90
17948;DHT22;9099;47.958;11.366;2024-01-06T14:57:56;4.60;99.90
17948;DHT22;9099;47.958;11.366;2024-01-06T15:00:23;4.50;99.90
17948;DHT22;9099;47.958;11.366;2024-01-06T15:02:50;4.50;99.90
17948;DHT22;9099;47.958;11.366;2024-01-06T15:05:17;4.50;99.90
17948;DHT22;9099;47.958;11.366;2024-01-06T15:07:44;4.50;99.90
17948;DHT22;9099;47.958;11.366;2024-01-06T15:10:12;4.40;99.90
17948;DHT22;9099;47.958;11.366;2024-01-06T15:12:41;4.30;99.90
17948;DHT22;9099;47.958;11.366;2024-01-06T15:15:08;4.30;99.90
17948;DHT22;9099;47.958;11.366;2024-01-06T15:17:35;4.20;99.90
17948;DHT22;9099;47.958;11.366;2024-01-06T15:20:02;4.20;99.90
17948;DHT22;9099;47.958;11.366;2024-01-06T15:22:33;4.10;99.90
17948;DHT22;9099;47.958;11.366;2024-01-06T15:25:01;4.10;99.90
17948;DHT22;9099;47.958;11.366;2024-01-06T15:27:32;4.10;99.90
17948;DHT22;9099;47.958;11.366;2024-01-06T15:29:59;4.00;99.90
17948;DHT22;9099;47.958;11.366;2024-01-06T15:32:33;4.00;99.90
17948;DHT22;9099;47.958;11.366;2024-01-06T15:35:00;4.10;99.90
17948;DHT22;9099;47.958;11.366;2024-01-06T15:37:27;4.10;99.90
17948;DHT22;9099;47.958;11.366;2024-01-06T15:39:53;4.10;99.90
17948;DHT22;9099;47.958;11.366;2024-01-06T15:42:20;4.10;99.90
17948;DHT22;9099;47.958;11.366;2024-01-06T15:44:49;4.10;99.90
17948;DHT22;9099;47.958;11.366;2024-01-06T15:47:15;4.10;99.90